Time;durP1;ratioP1;P1;durP2;ratioP2;P2;SDS_P1;SDS_P2;PMS_P1;PMS_P2;Temp;Humidity;BMP_temperature;BMP_pressure;BME280_temperature;BME280_humidity;BME280_pressure;Samples;Min_cycle;Max_cycle;Signal;HPM_P1;HPM_P2
2022/05/30 00:00:07;;;;;;;3.30;1.75;;;9.00;73.20;;;;;;4952557;28;20038;-66
2022/05/30 00:02:34;;;;;;;2.20;1.90;;;8.90;73.20;;;;;;4957748;28;20072;-65
2022/05/30 00:05:00;;;;;;;2.00;1.80;;;8.90;73.50;;;;;;4956581;28;20047;-66
2022/05/30 00:07:27;;;;;;;3.15;1.98;;;8.80;73.20;;;;;;4956840;28;20072;-65
2022/05/30 00:09:54;;;;;;;2.15;1.92;;;8.80;73.50;;;;;;4953135;28;20050;-65
2022/05/30 00:12:20;;;;;;;3.08;2.13;;;8.80;73.90;;;;;;4950345;28;20169;-65
2022/05/30 00:14:45;;;;;;;1.98;1.88;;;8.70;74.20;;;;;;4955430;28;20066;-65
2022/05/30 00:17:11;;;;;;;2.75;1.77;;;8.70;74.40;;;;;;4954879;28;20772;-65
2022/05/30 00:19:38;;;;;;;2.45;1.83;;;8.60;74.40;;;;;;4955966;28;20085;-65
2022/05/30 00:22:05;;;;;;;2.47;2.03;;;8.60;74.40;;;;;;4957973;28;20032;-65
2022/05/30 00:24:32;;;;;;;2.17;1.95;;;8.60;74.40;;;;;;4956455;28;20039;-65
2022/05/30 00:26:58;;;;;;;1.90;1.80;;;8.50;74.70;;;;;;4955157;28;20039;-65
2022/05/30 00:29:24;;;;;;;3.85;2.08;;;8.50;74.60;;;;;;4957761;28;20039;-66
2022/05/30 00:31:50;;;;;;;2.33;1.98;;;8.50;75.50;;;;;;4957550;28;20066;-65
2022/05/30 00:34:17;;;;;;;2.20;2.00;;;8.40;74.80;;;;;;4954161;28;20071;-64
2022/05/30 00:36:43;;;;;;;2.20;2.00;;;8.40;74.90;;;;;;4956959;28;20140;-64
2022/05/30 00:39:09;;;;;;;2.08;1.88;;;8.30;75.80;;;;;;4958702;28;20043;-65
2022/05/30 00:41:35;;;;;;;2.00;1.83;;;8.30;75.10;;;;;;4959194;28;20467;-64
2022/05/30 00:44:00;;;;;;;2.22;1.70;;;8.30;75.10;;;;;;4958466;28;20027;-65
2022/05/30 00:46:27;;;;;;;4.68;2.13;;;8.30;75.10;;;;;;4955691;28;20570;-65
2022/05/30 00:49:01;;;;;;;3.65;1.70;;;8.20;75.10;;;;;;4956503;28;20043;-65
2022/05/30 00:51:43;;;;;;;2.30;1.80;;;8.10;75.10;;;;;;4956194;28;20031;-65
2022/05/30 00:54:13;;;;;;;3.22;1.65;;;8.10;75.10;;;;;;4958990;28;20030;-65
2022/05/30 00:56:43;;;;;;;2.63;1.63;;;8.10;75.10;;;;;;4953959;28;20246;-65
2022/05/30 00:59:10;;;;;;;2.05;1.50;;;8.10;75.10;;;;;;4956782;28;20030;-63
2022/05/30 01:01:36;;;;;;;2.08;1.88;;;8.20;75.10;;;;;;4957470;28;20074;-65
2022/05/30 01:06:52;;;;;;;2.65;2.00;;;8.20;75.40;;;;;;4958133;28;20558;-65
2022/05/30 01:09:20;;;;;;;2.75;1.98;;;8.20;74.90;;;;;;4956706;28;20086;-66
2022/05/30 01:12:10;;;;;;;2.92;2.30;;;8.20;74.90;;;;;;4955308;28;20058;-63
2022/05/30 01:14:39;;;;;;;3.25;2.15;;;8.20;75.60;;;;;;4956569;28;20035;-65
2022/05/30 01:17:12;;;;;;;2.85;1.92;;;8.20;74.80;;;;;;4957975;28;20315;-65
2022/05/30 01:19:59;;;;;;;2.30;2.10;;;8.30;74.90;;;;;;4955537;28;20527;-65
2022/05/30 01:22:55;;;;;;;2.08;1.85;;;8.30;75.20;;;;;;4955657;28;20039;-65
2022/05/30 01:25:27;;;;;;;2.25;2.05;;;8.30;75.90;;;;;;4954695;28;20031;-65
2022/05/30 01:28:14;;;;;;;2.00;1.80;;;8.30;74.70;;;;;;4954229;28;20918;-65
2022/05/30 01:30:40;;;;;;;2.92;2.00;;;8.30;74.60;;;;;;4959199;28;20058;-67
2022/05/30 01:33:06;;;;;;;2.97;2.13;;;8.30;74.40;;;;;;4953703;28;20193;-68
2022/05/30 01:35:32;;;;;;;2.10;1.70;;;8.30;74.40;;;;;;4952159;28;20043;-66
2022/05/30 01:37:59;;;;;;;2.00;1.80;;;8.30;74.20;;;;;;4954973;28;20166;-67
2022/05/30 01:40:26;;;;;;;2.20;2.10;;;8.30;74.00;;;;;;4954515;28;20109;-65
2022/05/30 01:42:52;;;;;;;3.25;2.30;;;8.30;74.00;;;;;;4954812;28;20159;-68
2022/05/30 01:45:19;;;;;;;2.55;2.15;;;8.20;74.00;;;;;;4954490;28;20031;-67
2022/05/30 01:47:44;;;;;;;2.53;2.00;;;8.20;74.10;;;;;;4956481;28;20047;-68
2022/05/30 01:50:11;;;;;;;2.78;1.80;;;8.10;74.20;;;;;;4958346;28;20049;-67
2022/05/30 01:52:37;;;;;;;1.80;1.70;;;8.00;74.40;;;;;;4952919;28;20039;-67
2022/05/30 01:55:03;;;;;;;1.83;1.50;;;7.90;74.50;;;;;;4955479;28;20043;-64
2022/05/30 01:57:29;;;;;;;3.53;1.70;;;7.90;74.70;;;;;;4954625;28;20045;-68
2022/05/30 01:59:55;;;;;;;2.38;1.80;;;7.80;75.70;;;;;;4956152;28;20368;-68
2022/05/30 02:02:20;;;;;;;1.98;1.75;;;7.80;74.90;;;;;;4958338;28;20410;-67
2022/05/30 02:04:47;;;;;;;1.67;1.50;;;7.80;74.90;;;;;;4954241;28;20054;-67
2022/05/30 02:07:13;;;;;;;3.25;1.67;;;7.80;74.90;;;;;;4956794;28;20497;-68
2022/05/30 02:09:38;;;;;;;1.90;1.70;;;7.70;74.80;;;;;;4957316;28;20049;-68
2022/05/30 02:12:04;;;;;;;2.08;1.88;;;7.70;74.70;;;;;;4954618;28;20062;-67
2022/05/30 02:14:30;;;;;;;2.20;1.92;;;7.70;74.90;;;;;;4957138;28;20043;-68
2022/05/30 02:17:04;;;;;;;4.05;2.10;;;7.70;75.20;;;;;;4955923;28;20046;-68
2022/05/30 02:19:32;;;;;;;3.10;1.87;;;7.60;75.20;;;;;;4956000;28;20031;-68
2022/05/30 02:21:58;;;;;;;4.55;2.67;;;7.60;75.30;;;;;;4955992;28;20390;-68
2022/05/30 02:24:24;;;;;;;4.35;2.70;;;7.50;75.30;;;;;;4956259;28;20067;-68
2022/05/30 02:26:50;;;;;;;2.90;2.55;;;7.50;75.40;;;;;;4957660;28;20054;-67
2022/05/30 02:29:16;;;;;;;3.22;2.35;;;7.40;75.50;;;;;;4957580;28;20066;-67
2022/05/30 02:31:42;;;;;;;3.08;2.40;;;7.40;75.70;;;;;;4957755;28;20035;-67
2022/05/30 02:36:53;;;;;;;2.78;2.55;;;7.30;75.80;;;;;;4956337;28;20101;-68
2022/05/30 02:39:23;;;;;;;3.05;2.38;;;7.30;76.00;;;;;;4957416;28;20502;-67
2022/05/30 02:41:50;;;;;;;4.93;2.35;;;7.40;76.10;;;;;;4968045;28;20035;-67
2022/05/30 02:44:19;;;;;;;2.90;2.53;;;7.40;75.80;;;;;;4957433;28;20035;-67
2022/05/30 02:46:47;;;;;;;3.40;2.67;;;7.40;75.90;;;;;;4955979;28;20280;-67
2022/05/30 02:49:13;;;;;;;3.05;2.70;;;7.50;75.80;;;;;;4958598;28;20031;-67
2022/05/30 02:51:39;;;;;;;3.00;2.70;;;7.50;75.50;;;;;;4956265;28;20102;-67
2022/05/30 02:54:06;;;;;;;2.78;2.58;;;7.40;75.60;;;;;;4959082;28;20039;-67
2022/05/30 02:56:31;;;;;;;2.58;2.28;;;7.50;75.80;;;;;;4958145;28;20035;-67
2022/05/30 02:58:58;;;;;;;3.83;2.50;;;7.50;76.00;;;;;;4955837;28;20553;-67
2022/05/30 03:01:25;;;;;;;2.10;1.90;;;7.50;76.00;;;;;;4956310;28;20039;-65
2022/05/30 03:03:51;;;;;;;6.22;2.35;;;7.50;75.90;;;;;;4958365;28;20122;-67
2022/05/30 03:06:16;;;;;;;3.60;2.33;;;7.50;76.60;;;;;;4959403;28;20104;-67
2022/05/30 03:08:43;;;;;;;2.95;2.67;;;7.50;75.90;;;;;;4953199;28;20098;-68
2022/05/30 03:11:10;;;;;;;2.70;2.50;;;7.60;75.90;;;;;;4958016;28;20057;-67
2022/05/30 03:13:37;;;;;;;2.60;2.15;;;7.60;75.90;;;;;;4956459;28;20031;-68
2022/05/30 03:16:03;;;;;;;1.85;1.75;;;7.60;75.70;;;;;;4969355;28;20607;-67
2022/05/30 03:18:29;;;;;;;4.28;1.77;;;7.60;75.40;;;;;;4956371;28;20106;-67
2022/05/30 03:20:55;;;;;;;1.85;1.75;;;7.60;75.10;;;;;;4958633;28;20051;-67
2022/05/30 03:23:21;;;;;;;1.98;1.60;;;7.70;75.20;;;;;;4954466;28;20130;-68
2022/05/30 03:25:46;;;;;;;2.10;1.90;;;7.60;74.90;;;;;;4955182;28;20050;-68
2022/05/30 03:28:12;;;;;;;1.90;1.80;;;7.70;74.80;;;;;;4957159;28;20396;-67
2022/05/30 03:30:38;;;;;;;1.77;1.67;;;7.70;74.60;;;;;;4954624;28;20079;-64
2022/05/30 03:33:08;;;;;;;2.22;1.98;;;7.60;74.30;;;;;;4957450;28;20085;-67
2022/05/30 03:35:35;;;;;;;3.10;2.05;;;7.60;74.50;;;;;;4955885;28;20070;-67
2022/05/30 03:38:01;;;;;;;2.10;2.00;;;7.50;74.50;;;;;;4956451;28;20070;-68
2022/05/30 03:40:27;;;;;;;2.88;2.60;;;7.50;74.60;;;;;;4955197;28;20027;-67
2022/05/30 03:42:53;;;;;;;2.80;2.60;;;7.40;74.70;;;;;;4952671;28;20098;-67
2022/05/30 03:45:19;;;;;;;2.60;2.40;;;7.40;74.90;;;;;;4955571;28;20027;-68
2022/05/30 03:47:46;;;;;;;2.88;2.65;;;7.20;74.90;;;;;;4954026;28;20567;-66
2022/05/30 03:50:17;;;;;;;2.67;2.47;;;7.10;75.10;;;;;;4956311;28;20066;-68
2022/05/30 03:52:42;;;;;;;12.98;9.20;;;7.10;75.60;;;;;;4951718;28;20054;-67
2022/05/30 03:55:12;;;;;;;5.13;4.53;;;7.00;75.80;;;;;;4956452;28;20038;-68
2022/05/30 03:57:40;;;;;;;3.80;3.42;;;7.00;76.00;;;;;;4955159;28;20106;-67
2022/05/30 04:00:07;;;;;;;4.82;4.43;;;7.00;76.00;;;;;;4952368;28;20039;-68
2022/05/30 04:02:33;;;;;;;3.40;3.10;;;7.10;76.10;;;;;;4952622;28;20035;-67
2022/05/30 04:04:58;;;;;;;3.30;3.00;;;7.10;76.10;;;;;;4957456;28;20035;-68
2022/05/30 04:07:24;;;;;;;3.15;2.92;;;7.10;76.10;;;;;;4958439;28;20054;-68
2022/05/30 04:09:49;;;;;;;3.45;3.00;;;7.10;75.80;;;;;;4961122;28;20054;-68
2022/05/30 04:12:20;;;;;;;4.20;3.33;;;7.10;75.70;;;;;;4957104;28;20070;-67
2022/05/30 04:14:51;;;;;;;5.07;3.15;;;7.10;76.10;;;;;;4955749;28;20557;-68
2022/05/30 04:17:17;;;;;;;4.40;3.40;;;7.10;76.10;;;;;;4956408;28;20089;-67
2022/05/30 04:19:42;;;;;;;4.72;3.60;;;7.00;76.10;;;;;;4957318;28;20043;-67
2022/05/30 04:22:08;;;;;;;3.67;3.38;;;7.00;76.40;;;;;;4956283;28;20552;-67
2022/05/30 04:24:33;;;;;;;3.47;3.03;;;6.90;76.30;;;;;;4955935;28;20577;-67
2022/05/30 04:26:59;;;;;;;3.70;3.17;;;6.90;76.80;;;;;;4956561;28;20046;-67
2022/05/30 04:29:24;;;;;;;5.40;3.30;;;6.80;76.80;;;;;;4956952;28;20046;-67
2022/05/30 04:31:50;;;;;;;4.53;4.13;;;6.80;77.20;;;;;;4953062;28;20043;-66
2022/05/30 04:34:16;;;;;;;4.82;4.40;;;6.80;77.60;;;;;;4949856;28;20130;-66
2022/05/30 04:36:41;;;;;;;4.43;4.03;;;6.80;77.70;;;;;;4957635;28;20031;-66
2022/05/30 04:39:07;;;;;;;8.35;3.85;;;6.80;77.90;;;;;;4959247;28;20031;-67
2022/05/30 04:41:32;;;;;;;7.65;3.63;;;6.90;78.10;;;;;;4952356;28;20031;-67
2022/05/30 04:43:59;;;;;;;3.72;3.40;;;7.00;78.00;;;;;;4954543;28;20036;-66
2022/05/30 04:46:26;;;;;;;3.72;3.42;;;7.00;78.00;;;;;;4953394;28;20612;-67
2022/05/30 04:48:52;;;;;;;6.03;3.80;;;7.00;78.00;;;;;;4958036;28;20075;-67
2022/05/30 04:51:17;;;;;;;6.30;4.75;;;7.10;78.20;;;;;;4957297;28;20046;-67
2022/05/30 04:53:43;;;;;;;6.85;4.70;;;7.20;78.40;;;;;;4954219;28;20031;-65
2022/05/30 04:56:09;;;;;;;7.47;5.90;;;7.20;78.40;;;;;;4954884;28;20042;-68
2022/05/30 04:58:36;;;;;;;8.95;6.10;;;7.30;78.50;;;;;;4954753;28;20039;-67
2022/05/30 05:01:04;;;;;;;7.95;6.50;;;7.40;78.60;;;;;;4954241;28;20049;-68
2022/05/30 05:03:32;;;;;;;6.60;5.72;;;7.40;78.90;;;;;;4955924;28;20042;-66
2022/05/30 05:06:05;;;;;;;12.30;7.35;;;7.50;78.90;;;;;;4958455;28;20058;-67
2022/05/30 05:08:47;;;;;;;18.42;7.28;;;7.60;79.40;;;;;;4960769;28;20031;-67
2022/05/30 05:11:23;;;;;;;137.05;8.57;;;7.60;79.40;;;;;;4956776;28;20039;-66
2022/05/30 05:13:50;;;;;;;7.53;5.78;;;7.70;79.00;;;;;;4957050;28;20041;-67
2022/05/30 05:16:17;;;;;;;7.07;5.97;;;7.70;78.70;;;;;;4957147;28;20042;-67
2022/05/30 05:18:43;;;;;;;96.82;7.55;;;7.70;79.10;;;;;;4957748;28;23317;-66
2022/05/30 05:21:15;;;;;;;12.45;6.13;;;7.80;79.30;;;;;;4959812;28;20042;-67
2022/05/30 05:23:41;;;;;;;8.27;6.13;;;7.80;79.60;;;;;;4960462;28;20035;-67
2022/05/30 05:26:08;;;;;;;16.38;6.10;;;7.90;79.20;;;;;;4961173;28;20565;-67
2022/05/30 05:28:34;;;;;;;58.72;7.32;;;7.90;79.10;;;;;;4957170;28;20037;-65
2022/05/30 05:31:00;;;;;;;8.23;5.68;;;8.00;79.20;;;;;;4959765;28;20425;-66
2022/05/30 05:33:26;;;;;;;6.07;5.18;;;8.00;78.90;;;;;;4958452;28;20473;-67
2022/05/30 05:35:51;;;;;;;6.88;6.07;;;8.00;79.10;;;;;;4957273;28;20049;-66
2022/05/30 05:38:17;;;;;;;12.00;6.72;;;8.10;79.30;;;;;;4959763;28;20113;-67
2022/05/30 05:40:44;;;;;;;8.23;6.65;;;8.10;79.30;;;;;;4958684;28;21105;-64
2022/05/30 05:43:10;;;;;;;12.25;6.68;;;8.20;79.30;;;;;;4959520;28;20095;-67
2022/05/30 05:45:39;;;;;;;10.50;6.15;;;8.30;79.40;;;;;;4954877;28;20074;-68
2022/05/30 05:48:06;;;;;;;8.95;7.03;;;8.30;79.40;;;;;;4957962;28;20075;-65
2022/05/30 05:50:31;;;;;;;8.15;6.30;;;8.40;79.50;;;;;;4960031;28;20049;-66
2022/05/30 05:52:57;;;;;;;7.85;7.05;;;8.50;79.70;;;;;;4959729;28;20030;-66
2022/05/30 05:55:23;;;;;;;8.75;7.63;;;8.60;79.80;;;;;;4959706;28;20529;-67
2022/05/30 05:57:49;;;;;;;9.77;7.93;;;8.70;80.10;;;;;;4958875;28;20039;-67
2022/05/30 06:00:16;;;;;;;9.35;7.82;;;8.80;80.40;;;;;;4961772;28;20039;-67
2022/05/30 06:02:42;;;;;;;9.00;7.30;;;8.80;80.50;;;;;;4958656;28;20038;-67
2022/05/30 06:05:09;;;;;;;9.48;8.38;;;8.90;80.80;;;;;;4959732;28;20031;-65
2022/05/30 06:07:40;;;;;;;9.93;7.88;;;9.00;80.80;;;;;;4955208;28;20043;-65
2022/05/30 06:10:07;;;;;;;9.50;8.43;;;9.10;80.60;;;;;;4956380;28;22248;-65
2022/05/30 06:12:40;;;;;;;10.98;9.40;;;9.20;80.00;;;;;;4952163;28;20039;-66
2022/05/30 06:15:06;;;;;;;10.40;9.30;;;9.30;79.80;;;;;;4952763;28;20046;-66
2022/05/30 06:17:34;;;;;;;15.23;9.90;;;9.40;79.50;;;;;;4953656;28;20089;-66
2022/05/30 06:20:00;;;;;;;9.75;8.75;;;9.40;79.70;;;;;;4954951;28;20457;-65
2022/05/30 06:22:26;;;;;;;10.25;8.98;;;9.50;80.30;;;;;;4956856;28;20093;-66
2022/05/30 06:24:52;;;;;;;10.43;8.57;;;9.60;80.10;;;;;;4955936;28;20054;-67
2022/05/30 06:27:20;;;;;;;10.50;8.25;;;9.70;80.00;;;;;;4956036;28;20031;-66
2022/05/30 06:29:46;;;;;;;9.40;7.18;;;9.80;80.30;;;;;;4956157;28;20502;-66
2022/05/30 06:32:12;;;;;;;7.85;7.05;;;9.80;80.00;;;;;;4956275;28;20141;-64
2022/05/30 06:34:37;;;;;;;8.27;7.20;;;9.90;80.00;;;;;;4951230;28;20506;-65
2022/05/30 06:37:03;;;;;;;8.52;7.45;;;10.00;79.80;;;;;;4955389;28;20073;-66
2022/05/30 06:39:29;;;;;;;8.57;7.35;;;10.00;80.20;;;;;;4957918;28;20091;-66
2022/05/30 06:41:55;;;;;;;7.82;6.55;;;10.10;79.30;;;;;;4956759;28;20042;-66
2022/05/30 06:44:20;;;;;;;8.00;6.60;;;10.20;79.20;;;;;;4955921;28;20548;-66
2022/05/30 06:46:46;;;;;;;7.97;6.07;;;10.30;79.00;;;;;;4957009;28;20043;-65
2022/05/30 06:49:12;;;;;;;7.32;6.05;;;10.30;78.60;;;;;;4957378;28;20034;-66
2022/05/30 06:51:38;;;;;;;6.88;6.03;;;10.40;78.60;;;;;;4957732;28;20038;-66
2022/05/30 06:54:05;;;;;;;6.00;5.40;;;10.50;78.50;;;;;;4954676;28;20034;-67
2022/05/30 06:56:35;;;;;;;5.35;4.85;;;10.50;78.40;;;;;;4957674;28;20046;-66
2022/05/30 06:59:02;;;;;;;6.75;4.68;;;10.60;78.00;;;;;;4957522;28;20038;-66
2022/05/30 07:01:30;;;;;;;5.88;4.78;;;10.70;77.70;;;;;;4956006;28;20411;-65
2022/05/30 07:03:56;;;;;;;4.82;4.32;;;10.80;77.70;;;;;;4956552;28;20523;-65
2022/05/30 07:06:28;;;;;;;7.50;4.50;;;10.90;77.90;;;;;;4955801;28;20077;-67
2022/05/30 07:08:54;;;;;;;4.80;4.40;;;11.00;78.40;;;;;;4955380;28;20042;-67
2022/05/30 07:11:22;;;;;;;4.25;3.88;;;11.10;77.20;;;;;;4951903;28;20642;-66
2022/05/30 07:13:48;;;;;;;4.63;4.22;;;11.30;77.00;;;;;;4951152;28;20510;-66
2022/05/30 07:16:14;;;;;;;5.97;4.90;;;11.40;76.60;;;;;;4954365;28;20244;-67
2022/05/30 07:18:40;;;;;;;4.13;3.83;;;11.50;76.50;;;;;;4955887;28;20035;-66
2022/05/30 07:21:08;;;;;;;6.50;4.20;;;11.50;76.10;;;;;;4954496;28;20476;-66
2022/05/30 07:23:36;;;;;;;5.28;4.40;;;11.60;76.30;;;;;;4953513;28;20035;-66
2022/05/30 07:26:04;;;;;;;4.82;4.00;;;11.70;76.50;;;;;;4955937;28;20375;-65
2022/05/30 07:28:31;;;;;;;5.72;4.03;;;11.80;76.00;;;;;;4954487;28;20027;-66
2022/05/30 07:31:08;;;;;;;4.60;4.03;;;11.90;75.90;;;;;;4957907;28;20047;-66
2022/05/30 07:33:35;;;;;;;5.68;4.00;;;12.00;75.80;;;;;;4957250;28;20093;-67
2022/05/30 07:36:02;;;;;;;4.70;3.60;;;12.10;75.10;;;;;;4957642;28;20042;-66
2022/05/30 07:38:27;;;;;;;4.30;3.90;;;12.20;74.90;;;;;;4954537;28;20497;-66
2022/05/30 07:40:53;;;;;;;4.95;3.92;;;12.30;74.40;;;;;;4956092;28;20050;-66
2022/05/30 07:43:19;;;;;;;5.25;4.05;;;12.40;74.40;;;;;;4954829;28;20035;-66
2022/05/30 07:45:46;;;;;;;3.85;3.50;;;12.50;74.60;;;;;;4955742;28;20039;-66
2022/05/30 07:48:12;;;;;;;4.80;3.38;;;12.60;73.70;;;;;;4956490;28;20038;-66
2022/05/30 07:50:37;;;;;;;3.47;2.63;;;12.70;73.50;;;;;;4955360;28;20674;-66
2022/05/30 07:53:04;;;;;;;2.30;2.10;;;12.80;73.20;;;;;;4954670;28;20035;-66
2022/05/30 07:55:30;;;;;;;3.17;2.70;;;12.90;72.80;;;;;;4957480;28;20561;-66
2022/05/30 07:58:04;;;;;;;4.80;2.58;;;13.00;72.60;;;;;;4957897;28;20035;-67
2022/05/30 08:00:32;;;;;;;2.47;2.28;;;13.10;72.00;;;;;;4957121;28;20034;-67
2022/05/30 08:02:57;;;;;;;2.33;2.00;;;13.20;71.70;;;;;;4951678;28;20330;-66
2022/05/30 08:05:23;;;;;;;2.20;2.00;;;13.30;71.80;;;;;;4954142;28;20084;-66
2022/05/30 08:07:48;;;;;;;4.68;1.77;;;13.40;71.60;;;;;;4956182;28;20038;-66
2022/05/30 08:10:16;;;;;;;2.50;1.88;;;13.60;71.20;;;;;;4959102;28;20070;-65
2022/05/30 08:12:42;;;;;;;2.53;1.70;;;13.60;70.40;;;;;;4952028;28;20071;-66
2022/05/30 08:15:09;;;;;;;2.20;1.75;;;13.70;70.40;;;;;;4955131;28;20077;-67
2022/05/30 08:17:35;;;;;;;3.47;2.00;;;13.80;70.00;;;;;;4955186;28;20057;-66
2022/05/30 08:20:02;;;;;;;2.08;1.58;;;13.90;69.80;;;;;;4958682;28;20514;-67
2022/05/30 08:22:27;;;;;;;2.15;1.88;;;14.10;69.30;;;;;;4957222;28;20388;-66
2022/05/30 08:24:53;;;;;;;2.08;1.88;;;14.20;67.70;;;;;;4956390;28;20094;-66
2022/05/30 08:27:20;;;;;;;2.50;1.83;;;14.30;68.30;;;;;;4957947;28;20047;-67
2022/05/30 08:29:46;;;;;;;2.97;2.20;;;14.40;68.50;;;;;;4956871;28;20035;-66
2022/05/30 08:32:14;;;;;;;2.30;1.60;;;14.50;66.70;;;;;;4955607;28;20066;-66
2022/05/30 08:34:40;;;;;;;1.83;1.60;;;14.60;66.60;;;;;;4957745;28;20039;-67
2022/05/30 08:37:07;;;;;;;1.98;1.50;;;14.60;66.70;;;;;;4952860;28;20043;-66
2022/05/30 08:42:27;;;;;;;2.75;1.67;;;14.80;64.20;;;;;;4961194;28;20458;-67
2022/05/30 08:44:54;;;;;;;2.17;1.70;;;14.80;64.10;;;;;;4958735;28;20405;-66
2022/05/30 08:47:46;;;;;;;1.88;1.40;;;14.90;64.60;;;;;;4959999;28;20136;-65
2022/05/30 08:50:30;;;;;;;2.70;1.55;;;15.00;64.10;;;;;;4958369;28;20117;-67
2022/05/30 08:53:15;;;;;;;1.97;1.83;;;15.10;64.10;;;;;;4959821;28;20570;-67
2022/05/30 08:55:46;;;;;;;2.43;1.57;;;15.20;62.00;;;;;;4961212;28;20026;-66
2022/05/30 08:58:32;;;;;;;1.92;1.40;;;15.20;63.20;;;;;;4964636;28;20045;-66
2022/05/30 09:01:04;;;;;;;2.50;1.38;;;15.30;62.30;;;;;;4959696;28;20071;-66
2022/05/30 09:03:32;;;;;;;1.48;1.20;;;15.40;62.90;;;;;;4960131;28;20136;-66
2022/05/30 09:06:19;;;;;;;2.65;1.33;;;15.60;63.40;;;;;;4958254;28;20090;-67
2022/05/30 09:09:08;;;;;;;1.77;1.25;;;15.70;62.70;;;;;;4959307;28;20045;-67
2022/05/30 09:11:42;;;;;;;1.77;1.20;;;15.90;61.80;;;;;;4955526;28;20038;-67
2022/05/30 09:14:40;;;;;;;1.30;1.20;;;16.00;59.90;;;;;;4957276;28;20049;-66
2022/05/30 09:17:12;;;;;;;1.38;1.15;;;16.10;60.60;;;;;;4957622;28;20034;-67
2022/05/30 09:19:39;;;;;;;1.17;1.08;;;16.20;60.50;;;;;;4961539;28;20070;-67
2022/05/30 09:22:08;;;;;;;1.20;1.10;;;16.30;60.50;;;;;;4961852;28;20038;-66
2022/05/30 09:24:35;;;;;;;1.27;1.17;;;16.40;59.90;;;;;;4961429;28;20035;-66
2022/05/30 09:27:03;;;;;;;1.80;1.40;;;16.50;60.00;;;;;;4956134;28;20047;-66
2022/05/30 09:29:30;;;;;;;1.17;1.08;;;16.60;59.20;;;;;;4953658;28;20039;-66
2022/05/30 09:32:09;;;;;;;0.85;0.82;;;16.70;59.20;;;;;;4957003;28;20040;-68
2022/05/30 09:34:40;;;;;;;2.10;1.10;;;16.80;58.50;;;;;;4958679;28;20282;-66
2022/05/30 09:37:06;;;;;;;1.90;1.20;;;16.90;59.00;;;;;;4959915;28;20528;-67
2022/05/30 09:39:46;;;;;;;1.30;1.20;;;17.00;58.50;;;;;;4957801;28;20043;-67
2022/05/30 09:42:26;;;;;;;2.95;1.10;;;17.00;56.80;;;;;;4959186;28;20579;-66
2022/05/30 09:45:08;;;;;;;1.05;0.88;;;17.10;56.00;;;;;;4958696;28;20043;-67
2022/05/30 09:47:34;;;;;;;1.23;0.88;;;17.10;56.30;;;;;;4958793;28;20146;-66
2022/05/30 09:50:12;;;;;;;1.05;0.90;;;17.20;56.60;;;;;;4959339;28;20042;-67
2022/05/30 09:52:39;;;;;;;1.08;1.00;;;17.20;55.60;;;;;;4960373;28;20035;-67
2022/05/30 09:55:26;;;;;;;1.25;1.05;;;17.30;56.00;;;;;;4957156;28;20037;-69
2022/05/30 09:57:54;;;;;;;1.83;0.70;;;17.40;55.80;;;;;;4956173;28;20074;-67
2022/05/30 10:00:40;;;;;;;0.90;0.85;;;17.50;56.90;;;;;;4953696;28;20035;-68
2022/05/30 10:03:11;;;;;;;2.00;0.90;;;17.60;56.70;;;;;;4956964;28;20422;-67
2022/05/30 10:05:38;;;;;;;1.65;1.00;;;17.70;55.10;;;;;;4960507;28;20053;-67
2022/05/30 10:08:19;;;;;;;1.00;0.95;;;17.80;55.30;;;;;;4958237;28;20410;-67
2022/05/30 10:10:50;;;;;;;1.40;0.90;;;17.90;55.10;;;;;;4954911;28;20121;-66
2022/05/30 10:13:34;;;;;;;2.08;1.10;;;18.00;54.60;;;;;;4955955;28;20125;-67
2022/05/30 10:16:00;;;;;;;1.52;0.80;;;18.10;53.50;;;;;;4959050;28;20050;-67
2022/05/30 10:18:29;;;;;;;1.15;0.90;;;18.20;55.00;;;;;;4957431;28;20091;-66
2022/05/30 10:21:22;;;;;;;2.05;0.82;;;18.30;54.80;;;;;;4958279;28;20062;-68
2022/05/30 10:30:34;;;;;;;1.00;0.60;;;18.40;52.10;;;;;;4960198;28;20482;-68
2022/05/30 10:33:06;;;;;;;1.67;0.80;;;18.30;51.90;;;;;;4954176;28;20071;-68
2022/05/30 10:35:39;;;;;;;1.17;0.90;;;18.30;52.00;;;;;;4955514;28;20042;-67
2022/05/30 10:38:19;;;;;;;2.45;0.70;;;18.30;51.40;;;;;;4953462;28;20121;-67
2022/05/30 10:41:09;;;;;;;1.13;0.70;;;18.30;51.70;;;;;;4954959;28;21187;-67
2022/05/30 10:44:06;;;;;;;0.80;0.80;;;18.30;51.80;;;;;;4957663;28;20581;-67
2022/05/30 10:47:20;;;;;;;1.58;0.73;;;18.30;50.40;;;;;;4956638;28;20563;-68
2022/05/30 10:49:51;;;;;;;1.77;1.10;;;18.30;49.00;;;;;;4914444;28;20027;-67
2022/05/30 10:52:29;;;;;;;1.10;0.80;;;18.40;50.80;;;;;;4953911;28;20030;-67
2022/05/30 10:54:58;;;;;;;0.77;0.77;;;18.30;51.30;;;;;;4957296;28;20034;-68
2022/05/30 10:57:35;;;;;;;1.02;0.93;;;18.30;50.00;;;;;;4960454;28;20031;-68
2022/05/30 11:00:05;;;;;;;1.67;1.00;;;18.20;50.20;;;;;;4957341;28;20046;-67
2022/05/30 11:02:57;;;;;;;1.15;0.85;;;18.10;49.00;;;;;;4954453;28;20041;-67
2022/05/30 11:05:23;;;;;;;1.08;0.80;;;18.00;49.00;;;;;;4957873;28;20514;-67
2022/05/30 11:07:55;;;;;;;2.05;0.95;;;17.80;50.60;;;;;;4955586;28;20115;-67
2022/05/30 11:10:34;;;;;;;1.05;0.90;;;17.80;50.30;;;;;;4956813;28;20661;-67
2022/05/30 11:13:14;;;;;;;1.27;0.80;;;17.70;50.90;;;;;;4953531;28;20101;-67
2022/05/30 11:15:46;;;;;;;1.08;0.90;;;17.70;51.30;;;;;;4955993;28;20043;-67
2022/05/30 11:18:19;;;;;;;0.98;0.80;;;17.70;51.00;;;;;;4957753;28;20039;-67
2022/05/30 11:21:01;;;;;;;1.63;1.00;;;17.70;50.40;;;;;;4956270;28;20586;-67
2022/05/30 11:23:27;;;;;;;0.88;0.85;;;17.70;48.90;;;;;;4956849;28;20533;-66
2022/05/30 11:26:11;;;;;;;1.00;0.80;;;17.70;50.10;;;;;;4957168;28;20047;-67
2022/05/30 11:29:05;;;;;;;1.05;0.70;;;17.80;50.30;;;;;;4954923;28;20174;-68
2022/05/30 11:32:00;;;;;;;0.82;0.70;;;17.80;50.60;;;;;;4957130;28;20039;-67
2022/05/30 11:34:59;;;;;;;1.55;0.90;;;17.90;50.00;;;;;;4955633;28;20072;-67
2022/05/30 11:37:25;;;;;;;1.05;0.85;;;18.00;50.00;;;;;;4953712;28;20038;-67
2022/05/30 11:40:10;;;;;;;1.05;0.82;;;18.00;50.30;;;;;;4955278;28;20188;-68
2022/05/30 11:42:56;;;;;;;1.50;0.80;;;18.10;49.80;;;;;;4952635;28;20042;-68
2022/05/30 11:45:44;;;;;;;2.08;1.02;;;18.10;49.70;;;;;;4956098;28;20038;-68
2022/05/30 11:48:28;;;;;;;1.08;0.80;;;18.20;50.00;;;;;;4956249;28;20043;-68
2022/05/30 11:51:21;;;;;;;1.05;0.80;;;18.20;49.90;;;;;;4955333;28;20046;-67
2022/05/30 11:53:53;;;;;;;1.70;0.93;;;18.20;49.30;;;;;;4955030;28;20038;-67
2022/05/30 11:56:31;;;;;;;1.88;0.65;;;18.30;49.50;;;;;;4953161;28;20246;-68
2022/05/30 11:59:27;;;;;;;1.00;0.70;;;18.20;49.00;;;;;;4957118;28;20314;-65
2022/05/30 12:01:57;;;;;;;1.17;0.80;;;18.20;48.80;;;;;;4955302;28;20569;-67
2022/05/30 12:05:00;;;;;;;1.27;0.90;;;18.20;48.00;;;;;;4956683;28;20068;-67
2022/05/30 12:08:03;;;;;;;1.48;0.77;;;18.10;47.60;;;;;;4954592;28;20147;-68
2022/05/30 12:10:42;;;;;;;0.80;0.80;;;18.10;48.80;;;;;;4951965;28;20113;-67
2022/05/30 12:13:10;;;;;;;0.98;0.90;;;18.20;49.60;;;;;;4950637;28;20040;-67
2022/05/30 12:16:05;;;;;;;1.77;0.93;;;18.20;49.60;;;;;;4949759;28;20535;-66
2022/05/30 12:24:19;;;;;;;1.90;0.70;;;18.60;49.60;;;;;;4954117;28;20564;-62
2022/05/30 12:26:54;;;;;;;1.00;0.70;;;18.70;48.30;;;;;;4950791;28;20297;-68
2022/05/30 12:29:37;;;;;;;;;;;18.70;46.80;;;;;;4955939;28;20839;-68
2022/05/30 12:32:12;;;;;;;0.80;0.70;;;18.80;45.70;;;;;;4954876;28;19921;-68
2022/05/30 12:37:51;;;;;;;1.73;0.80;;;18.90;47.50;;;;;;4953946;28;20121;-67
2022/05/30 12:40:26;;;;;;;2.42;0.88;;;18.90;47.20;;;;;;4956877;28;20034;-69
2022/05/30 12:43:07;;;;;;;0.52;0.43;;;18.90;47.60;;;;;;4952069;28;20035;-68
2022/05/30 12:45:36;;;;;;;1.35;0.77;;;19.00;47.30;;;;;;4955078;28;20035;-68
2022/05/30 12:48:10;;;;;;;1.60;0.63;;;19.10;47.80;;;;;;4955964;28;20066;-67
2022/05/30 12:50:43;;;;;;;1.48;0.90;;;19.20;46.90;;;;;;4954284;28;20061;-68
2022/05/30 12:53:10;;;;;;;4.00;0.55;;;19.20;47.60;;;;;;4954960;28;20034;-67
2022/05/30 12:55:41;;;;;;;2.33;0.68;;;19.20;47.60;;;;;;4956196;28;20059;-67
2022/05/30 12:58:09;;;;;;;0.75;0.60;;;19.20;47.00;;;;;;4956266;28;20874;-69
2022/05/30 13:00:42;;;;;;;1.60;0.70;;;19.20;46.00;;;;;;4956527;28;20391;-67
2022/05/30 13:03:28;;;;;;;1.15;0.80;;;19.20;45.80;;;;;;4953899;28;20042;-67
2022/05/30 13:06:21;;;;;;;1.42;0.77;;;19.20;45.30;;;;;;4956565;28;20039;-69
2022/05/30 13:08:55;;;;;;;2.75;0.63;;;19.20;44.70;;;;;;4952561;28;20036;-67
2022/05/30 13:11:33;;;;;;;1.98;0.73;;;19.20;46.00;;;;;;4950496;28;20047;-67
2022/05/30 13:14:23;;;;;;;1.30;0.70;;;19.10;44.50;;;;;;4953724;28;20552;-66
2022/05/30 13:16:51;;;;;;;1.63;0.80;;;19.10;44.80;;;;;;4954799;28;20035;-67
2022/05/30 13:19:17;;;;;;;1.27;0.70;;;19.10;46.00;;;;;;4954912;28;20395;-68
2022/05/30 13:21:49;;;;;;;1.50;0.73;;;19.10;44.10;;;;;;4952616;28;20043;-66
2022/05/30 13:24:34;;;;;;;2.15;0.60;;;19.10;43.00;;;;;;4953458;28;20525;-68
2022/05/30 13:27:01;;;;;;;0.80;0.70;;;19.10;43.70;;;;;;4957009;28;20045;-67
2022/05/30 13:29:40;;;;;;;0.95;0.60;;;19.00;45.10;;;;;;4956493;28;20136;-68
2022/05/30 13:32:18;;;;;;;2.40;0.82;;;19.10;44.90;;;;;;4962695;28;20050;-67